Time;durP1;ratioP1;P1;durP2;ratioP2;P2;SDS_P1;SDS_P2;PMS_P1;PMS_P2;Temp;Humidity;BMP_temperature;BMP_pressure;BME280_temperature;BME280_humidity;BME280_pressure;Samples;Min_cycle;Max_cycle;Signal;HPM_P1;HPM_P2
2022/12/22 03:27:32;;;;;;;17.80;14.15;;;;;;;3.18;100.00;99072.22;5055402;28;20116;-78
2022/12/22 03:29:57;;;;;;;19.83;14.45;;;;;;;3.24;100.00;99069.47;5055447;28;20021;-78
2022/12/22 03:32:23;;;;;;;18.45;14.45;;;;;;;3.26;100.00;99065.16;5055056;28;20104;-77
2022/12/22 03:34:48;;;;;;;18.30;14.15;;;;;;;3.34;100.00;99070.94;5055218;28;20048;-78
2022/12/22 03:37:13;;;;;;;20.15;14.90;;;;;;;3.37;100.00;99078.59;5055225;28;20021;-77
2022/12/22 03:39:39;;;;;;;19.52;15.40;;;;;;;3.37;100.00;99070.88;5055108;28;20028;-78
2022/12/22 03:47:32;;;;;;;23.80;16.33;;;;;;;3.34;100.00;99082.97;5054801;28;20040;-77
2022/12/22 03:49:57;;;;;;;21.25;15.98;;;;;;;3.35;100.00;99074.34;5054725;28;20025;-78
2022/12/22 03:52:22;;;;;;;19.13;15.20;;;;;;;3.39;100.00;99084.53;5054712;28;20025;-78
2022/12/22 03:54:48;;;;;;;21.50;15.18;;;;;;;3.29;100.00;99053.91;5055298;28;20013;-77
2022/12/22 03:57:13;;;;;;;20.95;16.15;;;;;;;3.29;100.00;99056.47;5054873;28;20083;-77
2022/12/22 03:59:38;;;;;;;23.77;17.55;;;;;;;3.24;100.00;99060.06;5054636;28;20483;-77
2022/12/22 04:02:05;;;;;;;21.98;16.27;;;;;;;3.25;100.00;99073.75;5054555;28;20025;-77
2022/12/22 04:04:30;;;;;;;23.80;17.10;;;;;;;3.23;100.00;99060.91;5054592;28;20091;-78
2022/12/22 04:06:56;;;;;;;22.35;16.40;;;;;;;3.14;100.00;99044.88;5054850;28;20021;-77
2022/12/22 04:09:23;;;;;;;22.77;17.48;;;;;;;3.15;100.00;99056.84;5054645;28;20032;-77
2022/12/22 04:14:32;;;;;;;29.23;22.50;;;;;;;3.05;100.00;99043.38;5054598;28;20048;-77
2022/12/22 04:16:58;;;;;;;23.83;18.48;;;;;;;3.03;100.00;99046.88;5054948;28;20068;-77
2022/12/22 04:19:24;;;;;;;21.48;16.27;;;;;;;3.09;100.00;99050.16;5054399;28;20024;-77
2022/12/22 04:21:49;;;;;;;22.13;16.85;;;;;;;3.09;100.00;99042.44;5054463;28;20025;-77
2022/12/22 04:24:15;;;;;;;22.75;17.25;;;;;;;3.08;100.00;99038.19;5054727;28;20369;-77
2022/12/22 04:26:40;;;;;;;23.67;16.58;;;;;;;3.09;100.00;99041.59;5053884;28;20414;-77
2022/12/22 04:29:05;;;;;;;22.77;17.83;;;;;;;3.07;100.00;99036.47;5054223;28;20102;-77
2022/12/22 04:31:31;;;;;;;33.38;23.95;;;;;;;3.12;100.00;99041.47;5053538;28;20025;-77
2022/12/22 04:33:56;;;;;;;37.47;25.90;;;;;;;3.12;100.00;99034.63;5053908;28;20025;-77
2022/12/22 04:36:21;;;;;;;30.83;21.90;;;;;;;3.15;100.00;99028.53;5053917;28;20508;-77
2022/12/22 04:38:47;;;;;;;22.23;17.77;;;;;;;3.10;100.00;99022.69;5053958;28;20036;-77
2022/12/22 04:41:12;;;;;;;21.85;17.02;;;;;;;3.14;100.00;99022.56;5053975;28;20148;-78
2022/12/22 04:43:38;;;;;;;22.05;16.02;;;;;;;3.09;100.00;99016.69;5053462;28;20048;-77
2022/12/22 04:46:03;;;;;;;21.98;17.38;;;;;;;3.17;100.00;99019.06;5054144;28;20095;-78
2022/12/22 04:48:30;;;;;;;22.38;17.50;;;;;;;3.14;100.00;99009.69;5053854;28;20017;-77
2022/12/22 04:50:58;;;;;;;23.75;17.00;;;;;;;3.20;100.00;99012.13;5053969;28;20025;-77
2022/12/22 04:53:26;;;;;;;20.15;14.95;;;;;;;3.19;100.00;99014.72;5053660;28;20377;-77
2022/12/22 04:55:59;;;;;;;18.02;14.48;;;;;;;3.14;100.00;99009.69;5053766;28;20047;-78
2022/12/22 04:58:25;;;;;;;19.15;14.15;;;;;;;3.17;100.00;99017.34;5053748;28;20074;-77
2022/12/22 05:00:51;;;;;;;17.83;14.65;;;;;;;3.12;100.00;99013.19;5053752;28;20025;-78
2022/12/22 05:03:16;;;;;;;15.93;13.55;;;;;;;3.09;100.00;99006.41;5053741;28;20071;-78
2022/12/22 05:05:41;;;;;;;16.85;13.57;;;;;;;3.07;100.00;98997.88;5053713;28;20035;-77
2022/12/22 05:08:07;;;;;;;18.50;14.27;;;;;;;3.13;100.00;99002.03;5052284;28;20102;-77
2022/12/22 05:10:32;;;;;;;19.15;15.45;;;;;;;3.17;100.00;99004.47;5053187;28;20025;-77
2022/12/22 05:12:58;;;;;;;23.75;16.98;;;;;;;3.10;100.00;98979.78;5053977;28;20114;-78
2022/12/22 05:15:34;;;;;;;19.17;14.82;;;;;;;3.13;100.00;98986.59;5053665;28;20453;-78
2022/12/22 05:18:00;;;;;;;18.02;14.10;;;;;;;3.21;100.00;98997.53;5053384;28;20017;-78
2022/12/22 05:20:27;;;;;;;17.00;13.23;;;;;;;3.21;100.00;98989.81;5053184;28;20048;-77
2022/12/22 05:22:52;;;;;;;17.25;13.07;;;;;;;3.17;100.00;98981.31;5050668;28;20040;-77
2022/12/22 05:25:19;;;;;;;17.65;13.77;;;;;;;3.17;100.00;98983.06;5050896;28;20033;-77
2022/12/22 05:27:46;;;;;;;16.45;13.38;;;;;;;3.13;100.00;98973.72;5050596;28;20496;-77
2022/12/22 05:30:13;;;;;;;18.52;14.70;;;;;;;3.21;100.00;98990.63;5050557;28;20215;-77
2022/12/22 05:32:39;;;;;;;16.70;13.82;;;;;;;3.17;100.00;98980.47;5050749;28;20128;-78
2022/12/22 05:35:05;;;;;;;18.00;13.30;;;;;;;3.14;100.00;98958.22;5050613;28;20372;-78
2022/12/22 05:37:30;;;;;;;19.65;15.52;;;;;;;3.21;100.00;98970.06;5050144;28;20040;-78
2022/12/22 05:39:56;;;;;;;15.73;12.55;;;;;;;3.22;100.00;98966.59;5050669;28;20029;-77
2022/12/22 05:42:36;;;;;;;15.82;12.48;;;;;;;3.28;100.00;98957.00;5050439;28;20423;-78
2022/12/22 05:45:17;;;;;;;16.58;13.68;;;;;;;3.35;100.00;98959.38;5049413;28;20020;-77
2022/12/22 05:47:47;;;;;;;17.65;14.85;;;;;;;3.43;100.00;98959.16;5050240;28;20119;-78
2022/12/22 05:50:14;;;;;;;18.85;16.23;;;;;;;3.46;100.00;98959.91;5050289;28;20392;-77
2022/12/22 05:52:40;;;;;;;23.15;18.52;;;;;;;3.46;100.00;98941.91;5049871;28;20029;-78
2022/12/22 05:55:06;;;;;;;20.42;16.92;;;;;;;3.43;100.00;98928.25;5052934;28;20028;-78
2022/12/22 05:57:31;;;;;;;18.48;15.48;;;;;;;3.59;100.00;98938.97;5052769;28;20380;-78
2022/12/22 05:59:57;;;;;;;18.13;14.88;;;;;;;3.62;100.00;98949.97;5052737;28;20028;-78
2022/12/22 06:02:22;;;;;;;17.38;13.63;;;;;;;3.63;100.00;98959.41;5052549;28;20021;-78
2022/12/22 06:04:47;;;;;;;20.58;17.17;;;;;;;3.63;100.00;98945.72;5052650;28;20479;-78
2022/12/22 06:07:13;;;;;;;25.98;17.40;;;;;;;3.63;100.00;98951.69;5052359;28;20031;-77
2022/12/22 06:09:38;;;;;;;20.10;16.08;;;;;;;3.68;100.00;98957.53;5052313;28;20021;-78
2022/12/22 06:12:04;;;;;;;23.95;19.13;;;;;;;3.65;100.00;98955.06;5052552;28;20033;-78
2022/12/22 06:14:29;;;;;;;26.70;18.17;;;;;;;3.69;100.00;98954.06;5052048;28;20025;-78
2022/12/22 06:16:55;;;;;;;33.60;24.13;;;;;;;3.75;100.00;98963.38;5052359;28;20029;-78
2022/12/22 06:19:20;;;;;;;24.05;18.02;;;;;;;3.73;100.00;98955.66;5052126;28;20363;-78
2022/12/22 06:21:45;;;;;;;22.88;19.10;;;;;;;3.82;100.00;98956.28;5051939;28;20021;-77
2022/12/22 06:24:11;;;;;;;27.30;20.15;;;;;;;3.85;100.00;98945.91;5051069;28;20021;-78
2022/12/22 06:26:36;;;;;;;42.60;33.08;;;;;;;3.79;100.00;98935.75;5052116;28;20017;-77
2022/12/22 06:29:01;;;;;;;30.40;23.80;;;;;;;3.82;100.00;98940.81;5052120;28;20516;-77
2022/12/22 06:31:27;;;;;;;21.23;16.45;;;;;;;3.87;100.00;98960.41;5051949;28;20029;-77
2022/12/22 06:33:52;;;;;;;20.58;17.65;;;;;;;3.92;100.00;98950.81;5051798;28;20530;-77
2022/12/22 06:36:17;;;;;;;24.27;19.17;;;;;;;3.89;100.00;98948.31;5052131;28;20032;-77
2022/12/22 06:38:42;;;;;;;28.70;23.02;;;;;;;3.97;100.00;98950.69;5052004;28;20045;-77
2022/12/22 06:41:08;;;;;;;28.77;21.58;;;;;;;3.91;100.00;98931.06;5052170;28;20528;-77
2022/12/22 06:43:33;;;;;;;24.83;19.80;;;;;;;3.93;100.00;98931.06;5051657;28;20100;-77
2022/12/22 06:45:58;;;;;;;26.27;20.10;;;;;;;3.95;100.00;98929.25;5052010;28;20033;-77
2022/12/22 06:48:24;;;;;;;24.30;19.55;;;;;;;4.05;100.00;98934.97;5051995;28;20342;-77
2022/12/22 06:50:49;;;;;;;25.25;20.13;;;;;;;4.03;100.00;98929.00;5051653;28;20033;-77
2022/12/22 06:53:15;;;;;;;19.98;16.50;;;;;;;4.00;100.00;98917.94;5051855;28;20035;-77
2022/12/22 06:55:40;;;;;;;23.35;19.30;;;;;;;4.00;100.00;98917.94;5051028;28;20024;-77
2022/12/22 06:58:06;;;;;;;23.02;19.00;;;;;;;4.10;100.00;98926.19;5051752;28;20017;-77
2022/12/22 07:00:33;;;;;;;22.48;17.60;;;;;;;4.13;100.00;98928.69;5051628;28;20028;-77
2022/12/22 07:02:59;;;;;;;21.60;17.10;;;;;;;4.18;100.00;98926.81;5051551;28;20484;-77
2022/12/22 07:05:24;;;;;;;21.45;17.17;;;;;;;4.16;100.00;98917.41;5051737;28;20024;-77
2022/12/22 07:07:51;;;;;;;23.50;16.92;;;;;;;4.23;100.00;98924.91;5051688;28;20402;-77
2022/12/22 07:10:16;;;;;;;28.27;21.20;;;;;;;4.19;100.00;98915.59;5051708;28;20071;-77
2022/12/22 07:12:42;;;;;;;51.70;32.78;;;;;;;4.21;100.00;98902.66;5051517;28;20021;-77
2022/12/22 07:15:08;;;;;;;30.48;23.35;;;;;;;4.29;100.00;98925.59;5051716;28;20025;-77
2022/12/22 07:17:33;;;;;;;28.85;20.83;;;;;;;4.24;100.00;98911.13;5051343;28;20029;-77
2022/12/22 07:19:59;;;;;;;20.48;17.13;;;;;;;4.33;100.00;98916.88;5051561;28;20029;-77
2022/12/22 07:22:24;;;;;;;22.13;18.58;;;;;;;4.34;100.00;98916.84;5051452;28;20519;-77
2022/12/22 07:24:50;;;;;;;26.40;21.30;;;;;;;4.32;100.00;98895.41;5051266;28;20028;-77
2022/12/22 07:27:15;;;;;;;24.00;18.70;;;;;;;4.34;100.00;98905.66;5051311;28;20025;-77
2022/12/22 07:29:41;;;;;;;25.50;20.63;;;;;;;4.39;100.00;98902.06;5051204;28;20452;-77
2022/12/22 07:32:06;;;;;;;25.25;19.85;;;;;;;4.36;100.00;98891.84;5051418;28;20021;-77
2022/12/22 07:34:32;;;;;;;24.30;20.00;;;;;;;4.36;100.00;98881.53;5051316;28;20025;-77
2022/12/22 07:36:57;;;;;;;25.55;20.42;;;;;;;4.43;100.00;98888.16;5049799;28;20045;-77
2022/12/22 07:39:22;;;;;;;24.58;20.10;;;;;;;4.42;100.00;98871.00;5051380;28;20041;-77
2022/12/22 07:44:31;;;;;;;29.27;22.40;;;;;;;4.57;100.00;98879.94;5051126;28;20108;-77
2022/12/22 07:46:57;;;;;;;31.48;25.08;;;;;;;4.56;100.00;98880.03;5051117;28;20108;-77
2022/12/22 07:52:06;;;;;;;30.05;22.13;;;;;;;4.62;100.00;98882.38;5051392;28;20032;-77
2022/12/22 07:54:33;;;;;;;29.48;21.80;;;;;;;4.67;100.00;98886.47;5051434;28;20025;-77
2022/12/22 07:56:59;;;;;;;73.75;43.63;;;;;;;4.73;100.00;98883.69;5051220;28;20067;-77
2022/12/22 07:59:24;;;;;;;27.70;22.02;;;;;;;4.80;100.00;98891.19;5051202;28;20025;-77
2022/12/22 08:01:50;;;;;;;32.15;24.52;;;;;;;4.77;100.00;98873.28;5050844;28;20021;-77
2022/12/22 08:04:15;;;;;;;27.95;19.95;;;;;;;4.87;100.00;98877.19;5051356;28;20448;-77
2022/12/22 08:06:40;;;;;;;27.08;20.65;;;;;;;4.87;100.00;98857.38;5044289;28;20025;-77
2022/12/22 08:09:07;;;;;;;25.20;19.70;;;;;;;4.90;100.00;98852.13;5034646;28;20030;-77
2022/12/22 08:11:33;;;;;;;25.95;19.48;;;;;;;4.90;100.00;98857.28;5036354;28;20036;-78
2022/12/22 08:13:58;;;;;;;34.60;26.90;;;;;;;4.93;100.00;98859.75;5042566;28;20029;-78
2022/12/22 08:16:24;;;;;;;33.80;27.10;;;;;;;4.92;100.00;98852.06;5043432;28;20021;-78
2022/12/22 08:18:49;;;;;;;27.60;21.20;;;;;;;4.93;100.00;98862.34;5044503;28;20140;-78
2022/12/22 08:21:15;;;;;;;28.63;23.20;;;;;;;4.88;100.00;98843.59;5054473;28;20071;-78
2022/12/22 08:23:40;;;;;;;27.85;22.30;;;;;;;5.00;100.00;98840.56;5054121;28;20684;-78
2022/12/22 08:26:20;;;;;;;27.75;20.80;;;;;;;5.05;100.00;98845.53;5054323;28;20062;-78
2022/12/22 08:28:46;;;;;;;28.65;21.67;;;;;;;5.24;100.00;98845.72;5054046;28;20025;-77
2022/12/22 08:31:12;;;;;;;26.35;21.65;;;;;;;5.29;100.00;98823.13;5054411;28;20024;-77
2022/12/22 08:33:37;;;;;;;29.60;21.42;;;;;;;5.33;100.00;98819.53;5054153;28;20488;-78
2022/12/22 08:36:04;;;;;;;26.00;20.58;;;;;;;5.32;100.00;98814.44;5054139;28;20066;-78
2022/12/22 08:38:30;;;;;;;28.63;24.48;;;;;;;5.45;100.00;98824.22;5054423;28;20043;-78
2022/12/22 08:40:56;;;;;;;26.45;21.17;;;;;;;5.38;100.00;98804.72;5053840;28;20021;-78
2022/12/22 08:43:23;;;;;;;26.48;21.88;;;;;;;5.37;100.00;98805.63;5054073;28;20033;-78
2022/12/22 08:45:49;;;;;;;29.65;21.73;;;;;;;5.39;100.00;98805.53;5053947;28;20043;-78
2022/12/22 08:48:14;;;;;;;26.95;19.60;;;;;;;5.47;100.00;98813.84;5052757;28;20368;-78
2022/12/22 08:50:39;;;;;;;27.15;20.50;;;;;;;5.44;100.00;98812.22;5053311;28;20048;-78
2022/12/22 08:53:07;;;;;;;30.23;21.30;;;;;;;5.41;100.00;98796.00;5053899;28;20104;-78
2022/12/22 08:55:32;;;;;;;24.77;20.23;;;;;;;5.35;100.00;98797.09;5053900;28;20028;-78
2022/12/22 08:57:58;;;;;;;28.02;22.10;;;;;;;5.34;100.00;98800.56;5053494;28;20040;-78
2022/12/22 09:00:24;;;;;;;29.92;23.33;;;;;;;5.31;100.00;98795.53;5052617;28;20027;-78
2022/12/22 09:02:49;;;;;;;34.40;25.63;;;;;;;5.33;100.00;98806.63;5052262;28;20031;-78
2022/12/22 09:05:15;;;;;;;33.72;24.33;;;;;;;5.32;100.00;98807.53;5053937;28;20488;-78
2022/12/22 09:07:40;;;;;;;33.00;25.08;;;;;;;5.27;100.00;98793.97;5053550;28;20460;-78
2022/12/22 09:10:07;;;;;;;29.85;23.67;;;;;;;5.33;100.00;98798.88;5053522;28;20025;-78
2022/12/22 09:12:33;;;;;;;32.13;23.85;;;;;;;5.29;100.00;98789.56;5053186;28;20411;-78
2022/12/22 09:14:59;;;;;;;28.67;23.15;;;;;;;5.28;100.00;98793.06;5053431;28;20094;-78
2022/12/22 09:17:24;;;;;;;30.33;22.58;;;;;;;5.30;100.00;98791.25;5053604;28;20388;-78
2022/12/22 09:19:49;;;;;;;32.70;23.20;;;;;;;5.28;100.00;98777.56;5052942;28;20025;-78
2022/12/22 09:22:15;;;;;;;27.08;20.83;;;;;;;5.34;100.00;98787.66;5053293;28;20029;-78
2022/12/22 09:24:40;;;;;;;28.35;21.67;;;;;;;5.29;100.00;98776.66;5053001;28;20017;-78
2022/12/22 09:27:07;;;;;;;35.53;22.50;;;;;;;5.36;100.00;98778.13;5053387;28;20021;-78
2022/12/22 09:29:33;;;;;;;27.77;20.73;;;;;;;5.31;100.00;98768.84;5052238;28;20021;-78
2022/12/22 09:31:59;;;;;;;28.33;21.38;;;;;;;5.39;100.00;98779.72;5050900;28;20021;-78
2022/12/22 09:34:24;;;;;;;31.80;23.80;;;;;;;5.39;100.00;98775.41;5053134;28;20166;-77
2022/12/22 09:36:49;;;;;;;23.80;19.75;;;;;;;5.34;100.00;98768.75;5052635;28;20025;-78
2022/12/22 09:39:15;;;;;;;26.27;19.60;;;;;;;5.40;100.00;98771.94;5052690;28;20148;-78
2022/12/22 09:41:46;;;;;;;25.48;20.23;;;;;;;5.42;100.00;98777.03;5052207;28;20016;-77
2022/12/22 09:44:25;;;;;;;25.08;19.20;;;;;;;5.43;100.00;98768.38;5052724;28;20025;-78
2022/12/22 09:46:56;;;;;;;26.92;20.52;;;;;;;5.41;100.00;98758.13;5052406;28;20480;-78
2022/12/22 09:49:22;;;;;;;26.48;19.65;;;;;;;5.37;100.00;98756.56;5052613;28;20025;-78
2022/12/22 09:51:51;;;;;;;25.90;18.98;;;;;;;5.39;100.00;98754.72;5052088;28;20074;-78
2022/12/22 09:54:16;;;;;;;28.73;20.67;;;;;;;5.36;100.00;98761.78;5052607;28;20029;-78
2022/12/22 09:56:42;;;;;;;27.23;19.88;;;;;;;5.32;100.00;98750.72;5052335;28;20023;-78
2022/12/22 09:59:13;;;;;;;25.33;20.15;;;;;;;5.33;100.00;98746.41;5052543;28;20025;-78
2022/12/22 10:01:38;;;;;;;;;;;;;;;5.32;100.00;98740.41;5052826;28;20024;-78
2022/12/22 10:04:30;;;;;;;24.20;19.15;;;;;;;5.15;100.00;98712.69;5051913;28;19909;-78
2022/12/22 10:07:27;;;;;;;28.92;20.75;;;;;;;5.33;100.00;98734.34;5052121;28;20028;-78
2022/12/22 10:09:53;;;;;;;24.65;18.58;;;;;;;5.34;100.00;98737.75;5050076;28;20079;-78
2022/12/22 10:12:22;;;;;;;35.58;24.80;;;;;;;5.22;100.00;98716.72;5052224;28;20511;-78
2022/12/22 10:14:50;;;;;;;29.20;21.40;;;;;;;5.31;100.00;98709.47;5051870;28;20032;-78
2022/12/22 10:17:18;;;;;;;34.83;26.52;;;;;;;5.39;100.00;98722.91;5052165;28;20032;-78
2022/12/22 10:19:44;;;;;;;28.45;20.50;;;;;;;5.40;100.00;98709.97;5051776;28;20021;-78
2022/12/22 10:22:23;;;;;;;31.27;22.55;;;;;;;5.43;100.00;98709.81;5051950;28;20025;-78
2022/12/22 10:24:48;;;;;;;28.40;20.60;;;;;;;5.41;100.00;98696.13;5051788;28;20578;-78
2022/12/22 10:27:14;;;;;;;27.23;20.48;;;;;;;5.42;100.00;98687.47;5051872;28;20108;-78
2022/12/22 10:29:39;;;;;;;27.42;20.45;;;;;;;5.55;100.00;98707.63;5051220;28;20108;-78
2022/12/22 10:32:15;;;;;;;27.67;20.23;;;;;;;5.58;100.00;98699.78;5051735;28;20029;-78
2022/12/22 10:35:05;;;;;;;27.45;19.60;;;;;;;5.59;100.00;98688.53;5051833;28;20028;-78
2022/12/22 10:37:36;;;;;;;23.25;17.75;;;;;;;5.64;100.00;98705.50;5051700;28;20452;-78
2022/12/22 10:40:14;;;;;;;26.52;17.98;;;;;;;5.72;100.00;98692.28;5051312;28;20021;-78
2022/12/22 10:42:46;;;;;;;24.60;16.08;;;;;;;5.75;100.00;98692.16;5051627;28;20037;-77
2022/12/22 10:45:24;;;;;;;21.67;15.55;;;;;;;5.78;100.00;98693.78;5051778;28;20402;-77
2022/12/22 10:47:54;;;;;;;21.65;16.20;;;;;;;5.82;100.00;98693.59;5051483;28;20039;-78
2022/12/22 10:50:20;;;;;;;20.17;15.47;;;;;;;5.88;100.00;98682.13;5051515;28;20024;-78
2022/12/22 10:52:52;;;;;;;21.75;14.65;;;;;;;5.92;100.00;98687.13;5051747;28;20289;-78
2022/12/22 10:55:28;;;;;;;18.92;13.73;;;;;;;5.87;100.00;98675.28;5051430;28;20056;-78
2022/12/22 10:58:17;;;;;;;18.15;13.93;;;;;;;6.02;100.00;98684.97;5051024;28;20028;-78
2022/12/22 11:00:45;;;;;;;19.55;13.52;;;;;;;6.02;100.00;98684.97;5051202;28;20029;-78
2022/12/22 11:03:13;;;;;;;14.70;12.32;;;;;;;5.94;100.00;98662.06;5051050;28;20724;-78
2022/12/22 11:05:40;;;;;;;17.95;13.27;;;;;;;6.07;100.00;98667.56;5051527;28;20080;-78
2022/12/22 11:08:17;;;;;;;19.33;14.55;;;;;;;6.19;100.00;98666.16;5051170;28;20504;-77
2022/12/22 11:10:53;;;;;;;19.98;13.70;;;;;;;6.31;100.00;98675.94;5051389;28;20529;-78
2022/12/22 11:13:28;;;;;;;18.67;13.07;;;;;;;6.32;100.00;98669.03;5049939;28;20028;-78
2022/12/22 11:16:04;;;;;;;17.30;11.68;;;;;;;6.30;100.00;98663.09;5050968;28;20032;-78
2022/12/22 11:18:48;;;;;;;15.30;12.15;;;;;;;6.46;100.00;98666.66;5051204;28;20048;-78
2022/12/22 11:21:35;;;;;;;16.95;11.55;;;;;;;6.53;100.00;98651.69;5051501;28;20057;-77
2022/12/22 11:24:20;;;;;;;18.67;13.07;;;;;;;6.58;100.00;98652.34;5051460;28;20392;-78
2022/12/22 11:27:16;;;;;;;17.92;12.95;;;;;;;6.46;100.00;98649.41;5051163;28;20369;-78
2022/12/22 11:30:01;;;;;;;16.60;11.93;;;;;;;6.38;100.00;98648.06;5051352;28;20025;-78
2022/12/22 11:32:41;;;;;;;20.20;14.30;;;;;;;6.42;100.00;98647.03;5051689;28;20060;-78
2022/12/22 11:35:28;;;;;;;19.40;13.18;;;;;;;6.32;100.00;98631.09;5051128;28;20368;-78
2022/12/22 11:38:18;;;;;;;17.67;14.20;;;;;;;6.35;100.00;98641.28;5051147;28;20493;-78
2022/12/22 11:40:48;;;;;;;16.02;12.43;;;;;;;6.39;100.00;98622.13;5051736;28;20075;-78
2022/12/22 11:43:14;;;;;;;16.92;13.52;;;;;;;6.50;100.00;98617.31;5054978;28;20082;-78
2022/12/22 11:45:54;;;;;;;18.30;13.23;;;;;;;6.59;100.00;98620.38;5054961;28;20472;-78
2022/12/22 11:48:43;;;;;;;20.30;14.57;;;;;;;6.70;100.00;98612.94;5054707;28;20029;-78
2022/12/22 11:51:30;;;;;;;17.50;13.38;;;;;;;6.74;100.00;98599.78;5054942;28;20516;-78
2022/12/22 11:54:13;;;;;;;21.65;13.82;;;;;;;6.66;100.00;98593.31;5052714;28;20048;-78
2022/12/22 11:56:45;;;;;;;23.50;14.68;;;;;;;6.70;100.00;98589.63;5044823;28;20036;-78
2022/12/22 11:59:28;;;;;;;16.90;12.65;;;;;;;6.87;100.00;98591.41;5054625;28;20423;-78
2022/12/22 12:02:26;;;;;;;17.63;12.93;;;;;;;6.88;100.00;98588.78;5041303;28;20024;-78
2022/12/22 12:05:03;;;;;;;21.23;15.75;;;;;;;6.88;100.00;98591.38;4997031;28;20453;-78
2022/12/22 12:07:35;;;;;;;29.73;19.90;;;;;;;6.97;100.00;98582.31;4990931;28;20031;-78
2022/12/22 12:10:23;;;;;;;19.95;13.85;;;;;;;7.03;100.00;98570.81;4976244;28;20081;-78
2022/12/22 12:13:01;;;;;;;15.10;12.07;;;;;;;7.07;100.00;98572.31;4992989;28;20033;-78
2022/12/22 12:15:36;;;;;;;16.23;11.65;;;;;;;7.09;100.00;98573.94;4992633;28;20026;-78
2022/12/22 12:18:29;;;;;;;16.27;11.73;;;;;;;7.11;100.00;98577.28;4992488;28;20120;-78
2022/12/22 12:21:20;;;;;;;15.55;12.80;;;;;;;7.03;100.00;98555.28;4992249;28;20026;-78
2022/12/22 12:24:14;;;;;;;15.50;12.45;;;;;;;7.07;100.00;98565.41;4934372;29;20039;-78
2022/12/22 12:27:13;;;;;;;17.02;12.68;;;;;;;6.96;100.00;98558.19;4934543;29;20420;-78
2022/12/22 12:30:03;;;;;;;17.55;12.85;;;;;;;6.91;100.00;98554.13;4934415;29;20494;-78
2022/12/22 12:33:02;;;;;;;17.73;13.18;;;;;;;7.00;100.00;98559.69;4934321;29;20039;-78
2022/12/22 12:35:51;;;;;;;15.75;11.88;;;;;;;6.86;100.00;98549.16;4877723;29;20037;-78
2022/12/22 12:38:29;;;;;;;16.30;11.77;;;;;;;6.88;100.00;98559.47;4877463;29;20061;-78
2022/12/22 12:41:23;;;;;;;27.20;19.02;;;;;;;6.79;100.00;98540.06;4877306;29;20081;-78
2022/12/22 12:43:51;;;;;;;18.00;13.75;;;;;;;6.78;100.00;98524.56;4861584;29;20061;-78
2022/12/22 12:46:50;;;;;;;17.83;14.38;;;;;;;6.97;100.00;98548.66;4861746;29;20040;-77
2022/12/22 12:49:33;;;;;;;19.30;13.85;;;;;;;6.93;100.00;98542.78;4861737;29;20021;-78
2022/12/22 12:52:01;;;;;;;22.00;15.15;;;;;;;6.80;100.00;98543.47;4877604;29;20074;-78
2022/12/22 12:54:40;;;;;;;26.83;17.25;;;;;;;6.83;100.00;98546.75;4877107;29;20040;-78
2022/12/22 12:57:12;;;;;;;25.88;15.63;;;;;;;6.87;100.00;98543.09;4877440;29;20048;-78
2022/12/22 12:59:40;;;;;;;29.02;19.23;;;;;;;6.89;100.00;98538.69;4864938;28;20036;-78
2022/12/22 13:02:26;;;;;;;23.42;16.02;;;;;;;6.85;100.00;98539.75;4955628;28;20026;-78
2022/12/22 13:05:14;;;;;;;26.77;16.35;;;;;;;6.81;100.00;98530.44;4971969;28;20043;-78
2022/12/22 13:08:09;;;;;;;25.20;15.05;;;;;;;6.91;100.00;98528.22;4971675;28;20042;-78
2022/12/22 13:10:42;;;;;;;25.33;16.48;;;;;;;6.97;100.00;98531.38;4971839;28;20019;-78
2022/12/22 13:13:32;;;;;;;24.15;14.35;;;;;;;6.95;100.00;98533.22;5026250;28;20045;-78
2022/12/22 13:16:01;;;;;;;65.88;33.03;;;;;;;6.92;100.00;98535.94;5010036;28;20030;-78
2022/12/22 13:18:37;;;;;;;37.93;21.83;;;;;;;7.03;100.00;98535.38;5010423;28;20041;-78
2022/12/22 13:21:25;;;;;;;53.88;28.00;;;;;;;7.00;100.00;98535.56;4993564;28;20703;-78
2022/12/22 13:24:18;;;;;;;36.05;20.55;;;;;;;7.01;100.00;98537.22;5010368;28;20105;-77
2022/12/22 13:27:06;;;;;;;31.83;18.60;;;;;;;7.05;100.00;98506.84;5016816;28;20045;-78
2022/12/22 13:29:37;;;;;;;41.75;20.95;;;;;;;7.25;100.00;98519.63;5011036;28;20029;-78
2022/12/22 13:32:17;;;;;;;20.38;13.38;;;;;;;7.19;100.00;98505.22;5024160;28;20068;-78
2022/12/22 13:34:45;;;;;;;13.83;9.37;;;;;;;7.16;100.00;98502.81;5014801;28;20049;-78
2022/12/22 13:37:22;;;;;;;14.98;9.02;;;;;;;7.21;100.00;98502.56;5010066;28;20767;-78
2022/12/22 13:40:08;;;;;;;14.48;9.50;;;;;;;7.34;100.00;98523.50;5010224;28;20073;-78
2022/12/22 13:42:37;;;;;;;22.27;14.90;;;;;;;7.31;100.00;98516.72;5010280;28;20026;-78
2022/12/22 13:45:05;;;;;;;21.17;14.95;;;;;;;7.15;100.00;98492.50;5009778;28;20030;-78
2022/12/22 13:47:31;;;;;;;24.05;15.82;;;;;;;7.28;100.00;98509.09;5009959;28;20038;-78
2022/12/22 13:49:57;;;;;;;18.40;12.55;;;;;;;7.20;100.00;98506.06;5009985;28;20026;-78
2022/12/22 13:52:22;;;;;;;18.10;10.27;;;;;;;7.12;100.00;98505.59;5015865;28;20488;-78
2022/12/22 13:54:48;;;;;;;14.85;8.98;;;;;;;7.19;100.00;98507.81;5032428;28;20029;-78
2022/12/22 13:57:22;;;;;;;12.60;8.07;;;;;;;7.10;100.00;98484.16;5031012;28;20100;-79
2022/12/22 13:59:50;;;;;;;14.85;11.05;;;;;;;7.31;100.00;98521.91;5031960;28;20021;-79
2022/12/22 14:02:19;;;;;;;14.85;9.63;;;;;;;7.22;100.00;98518.03;5032099;28;20021;-79
2022/12/22 14:05:03;;;;;;;12.45;7.85;;;;;;;7.13;100.00;98502.97;5031253;28;20025;-79
2022/12/22 14:07:28;;;;;;;12.55;9.07;;;;;;;7.19;100.00;98510.41;5049402;28;20079;-79
2022/12/22 14:09:55;;;;;;;14.18;10.20;;;;;;;7.14;100.00;98521.91;5049339;28;20432;-79
2022/12/22 14:12:24;;;;;;;10.55;7.90;;;;;;;7.06;100.00;98522.31;5048618;28;20500;-79
2022/12/22 14:14:52;;;;;;;11.27;8.57;;;;;;;7.11;100.00;98515.13;5049056;28;20357;-79
2022/12/22 14:17:34;;;;;;;10.30;7.60;;;;;;;7.17;100.00;98521.78;5049321;28;20059;-79
2022/12/22 14:20:21;;;;;;;14.07;9.15;;;;;;;7.11;100.00;98514.31;5049905;28;20052;-79
2022/12/22 14:23:01;;;;;;;20.63;11.98;;;;;;;7.01;100.00;98511.34;4990164;28;20117;-79
2022/12/22 14:25:41;;;;;;;19.33;12.43;;;;;;;6.98;100.00;98507.16;4990846;28;20038;-78
2022/12/22 14:28:27;;;;;;;16.37;10.20;;;;;;;7.00;100.00;98512.28;4990007;28;20026;-79
2022/12/22 14:30:59;;;;;;;13.23;8.38;;;;;;;6.64;100.00;98471.75;4990194;28;20090;-79
2022/12/22 14:33:28;;;;;;;14.48;9.52;;;;;;;6.96;100.00;98514.16;4990268;28;20042;-79
2022/12/22 14:36:15;;;;;;;18.23;11.82;;;;;;;7.02;100.00;98520.78;4990005;28;20488;-78
2022/12/22 14:38:46;;;;;;;18.30;11.45;;;;;;;7.00;100.00;98517.44;4973544;28;20082;-78
2022/12/22 14:44:04;;;;;;;19.75;13.38;;;;;;;6.77;100.00;98504.81;4989769;28;20425;-78
2022/12/22 14:46:33;;;;;;;20.17;11.40;;;;;;;6.75;100.00;98497.94;4990577;28;20493;-78
2022/12/22 14:48:59;;;;;;;25.85;17.17;;;;;;;6.87;100.00;98522.41;4974086;28;20196;-78
2022/12/22 14:51:25;;;;;;;30.05;18.73;;;;;;;6.64;100.00;98501.97;4974110;28;20493;-78
2022/12/22 14:53:58;;;;;;;26.98;17.77;;;;;;;6.85;100.00;98531.13;5012942;28;20094;-78
2022/12/22 14:56:27;;;;;;;27.20;17.60;;;;;;;6.90;100.00;98527.41;5031946;28;20021;-78
2022/12/22 14:59:07;;;;;;;31.20;18.60;;;;;;;6.83;100.00;98509.69;5031757;28;20083;-78
2022/12/22 15:01:33;;;;;;;34.05;21.83;;;;;;;6.86;100.00;98512.94;5031470;28;20504;-78
2022/12/22 15:04:16;;;;;;;19.05;14.10;;;;;;;6.78;100.00;98519.41;5030417;28;20017;-78
2022/12/22 15:06:44;;;;;;;19.92;14.02;;;;;;;6.71;100.00;98501.59;5032276;28;20083;-78
2022/12/22 15:09:30;;;;;;;15.07;9.50;;;;;;;6.90;100.00;98513.63;5051461;28;20043;-78
2022/12/22 15:12:04;;;;;;;16.15;11.55;;;;;;;6.82;100.00;98503.66;5049836;28;20036;-78
2022/12/22 15:14:35;;;;;;;18.38;12.50;;;;;;;6.84;100.00;98519.94;5051474;28;20033;-78
2022/12/22 15:17:03;;;;;;;15.60;11.95;;;;;;;6.77;100.00;98518.56;5053275;28;20017;-78